createdAt,value
2016-04-11T00:00:06.318Z,1008.54
2016-04-11T00:01:06.273Z,1008.56
2016-04-11T00:02:06.214Z,1008.6
2016-04-11T00:03:06.185Z,1008.61
2016-04-11T00:04:06.125Z,1008.62
2016-04-11T00:05:06.097Z,1008.63
2016-04-11T00:06:06.036Z,1008.62
2016-04-11T00:07:05.993Z,1008.7
2016-04-11T00:08:08.948Z,1008.63
2016-04-11T00:09:08.904Z,1008.65
2016-04-11T00:10:08.861Z,1008.67
2016-04-11T00:11:05.801Z,1008.67
2016-04-11T00:12:05.772Z,1008.68
2016-04-11T00:13:05.711Z,1008.7
2016-04-11T00:14:05.667Z,1008.69
2016-04-11T00:15:05.625Z,1008.69
2016-04-11T00:16:05.581Z,1008.69
2016-04-11T00:17:05.536Z,1008.68
2016-04-11T00:18:08.476Z,1008.71
2016-04-11T00:19:05.432Z,1008.71
2016-04-11T00:20:05.373Z,1008.73
2016-04-11T00:21:05.328Z,1008.75
2016-04-11T00:22:05.300Z,1008.76
2016-04-11T00:23:05.240Z,1008.81
2016-04-11T00:24:05.195Z,1008.81
2016-04-11T00:25:05.152Z,1008.82
2016-04-11T00:26:05.310Z,1008.8
2016-04-11T00:27:05.063Z,1008.88
2016-04-11T00:28:05.003Z,1008.84
2016-04-11T00:29:04.959Z,1008.84
2016-04-11T00:30:04.915Z,1008.83
2016-04-11T00:31:04.871Z,1008.82
2016-04-11T00:32:04.811Z,1008.84
2016-04-11T00:33:04.760Z,1008.84
2016-04-11T00:34:04.723Z,1008.84
2016-04-11T00:35:07.680Z,1008.85
2016-04-11T00:36:07.662Z,1008.84
2016-04-11T00:37:04.580Z,1008.9
2016-04-11T00:38:04.536Z,1008.88
2016-04-11T00:39:04.477Z,1008.89
2016-04-11T00:40:04.432Z,1008.9
2016-04-11T00:41:04.388Z,1008.92
2016-04-11T00:42:04.359Z,1008.94
2016-04-11T00:43:04.284Z,1008.86
2016-04-11T00:44:04.240Z,1008.9
2016-04-11T00:45:04.196Z,1008.88
2016-04-11T00:46:04.151Z,1008.9
2016-04-11T00:47:04.138Z,1008.91
2016-04-11T00:48:04.063Z,1008.87
2016-04-11T00:49:04.004Z,1008.88
2016-04-11T00:50:03.959Z,1008.83
2016-04-11T00:51:03.915Z,1008.83
2016-04-11T00:52:03.887Z,1008.86
2016-04-11T00:53:03.827Z,1008.84
2016-04-11T00:54:03.782Z,1008.83
2016-04-11T00:55:03.738Z,1008.81
2016-04-11T00:56:03.678Z,1008.84
2016-04-11T00:57:03.650Z,1008.83
2016-04-11T00:58:03.590Z,1008.8
2016-04-11T00:59:06.545Z,1008.8
2016-04-11T01:00:03.501Z,1008.81
2016-04-11T01:01:06.458Z,1008.84
2016-04-11T01:02:06.428Z,1008.86
2016-04-11T01:03:03.369Z,1008.86
2016-04-11T01:04:03.308Z,1008.88
2016-04-11T01:05:03.264Z,1008.91
2016-04-11T01:06:03.221Z,1008.88
2016-04-11T01:07:06.177Z,1008.89
2016-04-11T01:08:03.117Z,1008.9
2016-04-11T01:09:03.073Z,1008.87
2016-04-11T01:10:06.033Z,1008.88
2016-04-11T01:11:02.989Z,1008.92
2016-04-11T01:12:02.976Z,1008.9
2016-04-11T01:13:02.885Z,1008.9
2016-04-11T01:14:02.841Z,1008.86
2016-04-11T01:15:02.796Z,1008.85
2016-04-11T01:16:02.957Z,1008.87
2016-04-11T01:17:05.709Z,1008.87
2016-04-11T01:18:02.649Z,1008.89
2016-04-11T01:19:05.823Z,1008.9
2016-04-11T01:20:02.560Z,1008.88
2016-04-11T01:21:02.516Z,1008.87
2016-04-11T01:22:02.456Z,1008.85
2016-04-11T01:23:02.412Z,1008.87
2016-04-11T01:24:02.367Z,1008.89
2016-04-11T01:25:02.323Z,1008.91
2016-04-11T01:26:02.279Z,1008.91
2016-04-11T01:27:02.236Z,1008.92
2016-04-11T01:28:02.175Z,1008.86
2016-04-11T01:29:02.147Z,1008.89
2016-04-11T01:30:02.087Z,1008.96
2016-04-11T01:31:02.042Z,1008.91
2016-04-11T01:32:01.999Z,1008.92
2016-04-11T01:33:01.955Z,1008.93
2016-04-11T01:34:01.895Z,1008.96
2016-04-11T01:35:04.850Z,1008.94
2016-04-11T01:36:04.806Z,1009
2016-04-11T01:37:01.762Z,1008.94
2016-04-11T01:38:01.718Z,1008.95
2016-04-11T01:39:01.658Z,1008.94
2016-04-11T01:40:01.613Z,1008.92
2016-04-11T01:41:01.586Z,1008.95
2016-04-11T01:42:01.526Z,1008.96
2016-04-11T01:43:01.482Z,1008.95
2016-04-11T01:44:01.437Z,1008.98
2016-04-11T01:45:04.393Z,1008.97
2016-04-11T01:46:01.333Z,1008.97
2016-04-11T01:47:01.290Z,1008.98
2016-04-11T01:48:01.260Z,1008.93
2016-04-11T01:49:01.201Z,1008.96
2016-04-11T01:50:01.359Z,1008.94
2016-04-11T01:51:01.112Z,1008.95
2016-04-11T01:52:01.053Z,1008.93
2016-04-11T01:53:01.024Z,1008.94
2016-04-11T01:54:00.965Z,1008.94
2016-04-11T01:55:00.936Z,1008.94
2016-04-11T01:56:00.876Z,1008.95
2016-04-11T01:57:00.816Z,1008.94
2016-04-11T01:58:00.772Z,1008.96
2016-04-11T01:59:03.743Z,1008.89
2016-04-11T02:00:00.683Z,1008.87
2016-04-11T02:01:00.655Z,1008.88
2016-04-11T02:02:00.594Z,1008.89
2016-04-11T02:03:00.535Z,1008.82
2016-04-11T02:04:00.491Z,1008.79
2016-04-11T02:05:00.447Z,1008.79
2016-04-11T02:06:00.402Z,1008.8
2016-04-11T02:07:00.359Z,1008.77
2016-04-11T02:08:03.314Z,1008.8
2016-04-11T02:09:00.255Z,1008.8
2016-04-11T02:10:03.226Z,1008.79
2016-04-11T02:11:00.166Z,1008.79
2016-04-11T02:12:00.122Z,1008.84
2016-04-11T02:13:00.077Z,1008.84
2016-04-11T02:14:00.033Z,1008.84
2016-04-11T02:14:59.973Z,1008.8
2016-04-11T02:15:59.930Z,1008.79
2016-04-11T02:16:59.885Z,1008.75
2016-04-11T02:18:00.044Z,1008.81
2016-04-11T02:18:59.796Z,1008.79
2016-04-11T02:19:59.754Z,1008.79
2016-04-11T02:20:59.693Z,1008.79
2016-04-11T02:21:59.664Z,1008.77
2016-04-11T02:22:59.604Z,1008.79
2016-04-11T02:23:59.560Z,1008.74
2016-04-11T02:24:59.517Z,1008.78
2016-04-11T02:25:59.456Z,1008.78
2016-04-11T02:26:59.428Z,1008.75
2016-04-11T02:28:02.383Z,1008.74
2016-04-11T02:28:59.323Z,1008.73
2016-04-11T02:29:59.280Z,1008.71
2016-04-11T02:30:59.236Z,1008.72
2016-04-11T02:31:59.191Z,1008.74
2016-04-11T02:32:59.132Z,1008.71
2016-04-11T02:33:59.103Z,1008.74
2016-04-11T02:34:59.044Z,1008.75
2016-04-11T02:35:59.202Z,1008.75
2016-04-11T02:37:01.955Z,1008.78
2016-04-11T02:37:58.895Z,1008.75
2016-04-11T02:38:58.851Z,1008.78
2016-04-11T02:39:58.807Z,1008.77
2016-04-11T02:40:58.763Z,1008.83
2016-04-11T02:42:01.718Z,1008.76
2016-04-11T02:42:58.658Z,1008.81
2016-04-11T02:43:58.613Z,1008.8
2016-04-11T02:44:58.570Z,1008.83
2016-04-11T02:45:58.526Z,1008.81
2016-04-11T02:46:58.482Z,1008.85
2016-04-11T02:47:58.422Z,1008.83
2016-04-11T02:48:58.393Z,1008.87
2016-04-11T02:49:58.333Z,1008.85
2016-04-11T02:51:01.304Z,1008.87
2016-04-11T02:51:58.245Z,1008.89
2016-04-11T02:52:58.201Z,1008.86
2016-04-11T02:53:58.156Z,1008.86
2016-04-11T02:54:58.112Z,1008.84
2016-04-11T02:55:58.052Z,1008.84
2016-04-11T02:56:58.009Z,1008.84
2016-04-11T02:57:57.964Z,1008.83
2016-04-11T02:58:57.920Z,1008.84
2016-04-11T02:59:57.876Z,1008.86
2016-04-11T03:00:57.817Z,1008.84
2016-04-11T03:01:57.787Z,1008.86
2016-04-11T03:02:57.727Z,1008.81
2016-04-11T03:03:57.683Z,1008.87
2016-04-11T03:04:57.639Z,1008.83
2016-04-11T03:05:57.580Z,1008.76
2016-04-11T03:06:57.535Z,1008.76
2016-04-11T03:07:57.491Z,1008.77
2016-04-11T03:08:57.446Z,1008.73
2016-04-11T03:09:57.402Z,1008.76
2016-04-11T03:10:57.343Z,1008.72
2016-04-11T03:11:57.314Z,1008.68
2016-04-11T03:12:57.254Z,1008.68
2016-04-11T03:13:57.211Z,1008.67
2016-04-11T03:14:57.166Z,1008.65
2016-04-11T03:15:57.122Z,1008.64
2016-04-11T03:16:57.077Z,1008.64
2016-04-11T03:17:57.034Z,1008.62
2016-04-11T03:18:56.974Z,1008.68
2016-04-11T03:19:59.945Z,1008.62
2016-04-11T03:20:59.885Z,1008.66
2016-04-11T03:21:56.841Z,1008.67
2016-04-11T03:22:56.781Z,1008.67
2016-04-11T03:23:56.737Z,1008.7
2016-04-11T03:24:56.693Z,1008.64
2016-04-11T03:25:59.664Z,1008.71
2016-04-11T03:26:56.601Z,1008.68
2016-04-11T03:27:59.561Z,1008.66
2016-04-11T03:28:56.498Z,1008.66
2016-04-11T03:29:56.470Z,1008.67
2016-04-11T03:30:56.409Z,1008.69
2016-04-11T03:31:56.365Z,1008.65
2016-04-11T03:32:56.352Z,1008.65
2016-04-11T03:33:59.280Z,1008.66
2016-04-11T03:34:56.233Z,1008.69
2016-04-11T03:35:59.191Z,1008.71
2016-04-11T03:36:59.147Z,1008.66
2016-04-11T03:37:59.087Z,1008.64
2016-04-11T03:38:56.040Z,1008.66
2016-04-11T03:39:55.997Z,1008.62
2016-04-11T03:40:55.952Z,1008.61
2016-04-11T03:41:55.892Z,1008.6
2016-04-11T03:42:55.849Z,1008.62
2016-04-11T03:43:58.807Z,1008.65
2016-04-11T03:44:55.760Z,1008.63
2016-04-11T03:45:55.716Z,1008.65
2016-04-11T03:46:55.671Z,1008.59
2016-04-11T03:47:55.627Z,1008.6
2016-04-11T03:48:55.568Z,1008.61
2016-04-11T03:49:55.539Z,1008.6
2016-04-11T03:50:55.479Z,1008.6
2016-04-11T03:51:58.437Z,1008.6
2016-04-11T03:52:55.375Z,1008.61
2016-04-11T03:53:55.346Z,1008.59
2016-04-11T03:54:55.287Z,1008.63
2016-04-11T03:55:55.258Z,1008.6
2016-04-11T03:56:55.182Z,1008.59
2016-04-11T03:57:55.139Z,1008.58
2016-04-11T03:58:55.095Z,1008.61
2016-04-11T03:59:55.050Z,1008.59
2016-04-11T04:00:55.006Z,1008.6
2016-04-11T04:01:58.168Z,1008.63
2016-04-11T04:02:54.918Z,1008.59
2016-04-11T04:03:55.061Z,1008.6
2016-04-11T04:04:54.829Z,1008.58
2016-04-11T04:05:54.769Z,1008.57
2016-04-11T04:06:54.928Z,1008.6
2016-04-11T04:07:54.680Z,1008.61
2016-04-11T04:08:54.637Z,1008.62
2016-04-11T04:09:54.592Z,1008.59
2016-04-11T04:10:57.535Z,1008.59
2016-04-11T04:11:57.492Z,1008.57
2016-04-11T04:12:54.445Z,1008.54
2016-04-11T04:13:54.400Z,1008.57
2016-04-11T04:14:54.356Z,1008.54
2016-04-11T04:15:54.296Z,1008.54
2016-04-11T04:16:54.252Z,1008.52
2016-04-11T04:17:57.208Z,1008.53
2016-04-11T04:18:54.164Z,1008.55
2016-04-11T04:19:57.119Z,1008.54
2016-04-11T04:20:54.076Z,1008.51
2016-04-11T04:21:54.015Z,1008.52
2016-04-11T04:22:53.971Z,1008.5
2016-04-11T04:23:53.927Z,1008.52
2016-04-11T04:24:53.916Z,1008.52
2016-04-11T04:25:53.916Z,1008.55
2016-04-11T04:26:56.916Z,1008.54
2016-04-11T04:27:56.915Z,1008.52
2016-04-11T04:28:56.915Z,1008.56
2016-04-11T04:29:53.877Z,1008.55
2016-04-11T04:30:53.849Z,1008.55
2016-04-11T04:31:54.023Z,1008.54
2016-04-11T04:32:53.777Z,1008.57
2016-04-11T04:33:53.748Z,1008.54
2016-04-11T04:34:53.711Z,1008.58
2016-04-11T04:35:53.688Z,1008.56
2016-04-11T04:36:53.635Z,1008.56
2016-04-11T04:37:53.597Z,1008.55
2016-04-11T04:38:53.589Z,1008.52
2016-04-11T04:39:53.501Z,1008.54
2016-04-11T04:40:53.459Z,1008.52
2016-04-11T04:41:53.417Z,1008.5
2016-04-11T04:42:53.375Z,1008.55
2016-04-11T04:43:53.332Z,1008.56
2016-04-11T04:44:53.273Z,1008.57
2016-04-11T04:45:53.230Z,1008.58
2016-04-11T04:46:53.186Z,1008.58
2016-04-11T04:47:53.143Z,1008.56
2016-04-11T04:48:53.084Z,1008.57
2016-04-11T04:49:53.040Z,1008.59
2016-04-11T04:50:52.997Z,1008.55
2016-04-11T04:51:55.968Z,1008.63
2016-04-11T04:52:52.909Z,1008.61
2016-04-11T04:53:52.865Z,1008.57
2016-04-11T04:54:53.024Z,1008.61
2016-04-11T04:55:52.761Z,1008.56
2016-04-11T04:56:52.732Z,1008.61
2016-04-11T04:57:52.673Z,1008.59
2016-04-11T04:58:52.629Z,1008.62
2016-04-11T04:59:52.584Z,1008.6
2016-04-11T05:00:52.525Z,1008.62
2016-04-11T05:01:55.495Z,1008.63
2016-04-11T05:02:52.452Z,1008.65
2016-04-11T05:03:52.392Z,1008.6
2016-04-11T05:04:52.348Z,1008.67
2016-04-11T05:05:52.304Z,1008.61
2016-04-11T05:06:52.244Z,1008.57
2016-04-11T05:07:52.200Z,1008.64
2016-04-11T05:08:52.155Z,1008.62
2016-04-11T05:09:52.127Z,1008.62
2016-04-11T05:10:52.067Z,1008.61
2016-04-11T05:11:55.023Z,1008.59
2016-04-11T05:12:51.963Z,1008.64
2016-04-11T05:13:51.919Z,1008.63
2016-04-11T05:14:51.874Z,1008.6
2016-04-11T05:15:51.830Z,1008.59
2016-04-11T05:16:51.786Z,1008.61
2016-04-11T05:17:51.742Z,1008.62
2016-04-11T05:18:51.682Z,1008.61
2016-04-11T05:19:51.638Z,1008.7
2016-04-11T05:20:51.594Z,1008.66
2016-04-11T05:21:51.549Z,1008.68
2016-04-11T05:22:51.505Z,1008.66
2016-04-11T05:23:51.462Z,1008.61
2016-04-11T05:24:51.401Z,1008.63
2016-04-11T05:25:51.357Z,1008.65
2016-04-11T05:26:51.313Z,1008.62
2016-04-11T05:27:51.269Z,1008.62
2016-04-11T05:28:51.272Z,1008.64
2016-04-11T05:29:54.181Z,1008.65
2016-04-11T05:30:51.121Z,1008.65
2016-04-11T05:31:51.076Z,1008.69
2016-04-11T05:32:51.032Z,1008.63
2016-04-11T05:33:50.989Z,1008.68
2016-04-11T05:34:50.944Z,1008.67
2016-04-11T05:35:50.884Z,1008.64
2016-04-11T05:36:50.856Z,1008.66
2016-04-11T05:37:53.795Z,1008.71
2016-04-11T05:38:50.752Z,1008.65
2016-04-11T05:39:50.708Z,1008.7
2016-04-11T05:40:50.663Z,1008.76
2016-04-11T05:41:50.619Z,1008.74
2016-04-11T05:42:50.592Z,1008.73
2016-04-11T05:43:50.531Z,1008.72
2016-04-11T05:44:50.472Z,1008.72
2016-04-11T05:45:50.427Z,1008.75
2016-04-11T05:46:50.383Z,1008.73
2016-04-11T05:47:50.323Z,1008.77
2016-04-11T05:48:50.279Z,1008.74
2016-04-11T05:49:50.235Z,1008.74
2016-04-11T05:50:50.190Z,1008.7
2016-04-11T05:51:50.146Z,1008.74
2016-04-11T05:52:50.086Z,1008.76
2016-04-11T05:53:50.058Z,1008.77
2016-04-11T05:54:50.013Z,1008.8
2016-04-11T05:55:49.954Z,1008.82
2016-04-11T05:56:49.910Z,1008.88
2016-04-11T05:57:49.866Z,1008.84
2016-04-11T05:58:49.821Z,1008.85
2016-04-11T05:59:49.762Z,1008.9
2016-04-11T06:00:49.718Z,1008.9
2016-04-11T06:01:49.673Z,1008.91
2016-04-11T06:02:49.629Z,1008.9
2016-04-11T06:03:49.569Z,1008.92
2016-04-11T06:04:49.540Z,1008.91
2016-04-11T06:05:49.481Z,1008.87
2016-04-11T06:06:49.437Z,1008.87
2016-04-11T06:07:49.408Z,1008.85
2016-04-11T06:08:49.349Z,1008.87
2016-04-11T06:09:49.303Z,1008.87
2016-04-11T06:10:49.259Z,1008.9
2016-04-11T06:11:49.200Z,1008.83
2016-04-11T06:12:49.156Z,1008.84
2016-04-11T06:13:49.111Z,1008.83
2016-04-11T06:14:49.067Z,1008.87
2016-04-11T06:15:49.023Z,1008.86
2016-04-11T06:16:48.964Z,1008.87
2016-04-11T06:17:48.951Z,1008.84
2016-04-11T06:18:48.922Z,1008.89
2016-04-11T06:19:48.830Z,1008.82
2016-04-11T06:20:48.787Z,1008.86
2016-04-11T06:21:48.743Z,1008.81
2016-04-11T06:22:48.682Z,1008.77
2016-04-11T06:23:48.655Z,1008.76
2016-04-11T06:24:48.610Z,1008.76
2016-04-11T06:25:48.550Z,1008.75
2016-04-11T06:26:48.507Z,1008.74
2016-04-11T06:27:48.540Z,1008.72
2016-04-11T06:28:48.402Z,1008.73
2016-04-11T06:29:48.561Z,1008.73
2016-04-11T06:30:48.517Z,1008.7
2016-04-11T06:31:48.270Z,1008.7
2016-04-11T06:32:48.226Z,1008.7
2016-04-11T06:33:48.182Z,1008.77
2016-04-11T06:34:48.121Z,1008.75
2016-04-11T06:35:48.076Z,1008.74
2016-04-11T06:36:48.034Z,1008.69
2016-04-11T06:37:47.989Z,1008.71
2016-04-11T06:38:47.944Z,1008.75
2016-04-11T06:39:47.901Z,1008.75
2016-04-11T06:40:47.840Z,1008.75
2016-04-11T06:41:47.797Z,1008.76
2016-04-11T06:42:47.753Z,1008.76
2016-04-11T06:43:47.708Z,1008.76
2016-04-11T06:44:47.648Z,1008.76
2016-04-11T06:45:47.604Z,1008.76
2016-04-11T06:46:47.575Z,1008.75
2016-04-11T06:47:47.516Z,1008.77
2016-04-11T06:48:47.472Z,1008.77
2016-04-11T06:49:47.428Z,1008.74
2016-04-11T06:50:47.367Z,1008.76
2016-04-11T06:51:47.338Z,1008.77
2016-04-11T06:52:47.280Z,1008.78
2016-04-11T06:53:47.250Z,1008.73
2016-04-11T06:54:47.190Z,1008.76
2016-04-11T06:55:47.147Z,1008.77
2016-04-11T06:56:47.102Z,1008.83
2016-04-11T06:57:47.043Z,1008.8
2016-04-11T06:58:46.999Z,1008.76
2016-04-11T06:59:46.954Z,1008.73
2016-04-11T07:00:46.910Z,1008.74
2016-04-11T07:01:46.865Z,1008.79
2016-04-11T07:02:46.821Z,1008.7
2016-04-11T07:03:46.809Z,1008.75
2016-04-11T07:04:46.734Z,1008.76
2016-04-11T07:05:46.674Z,1008.78
2016-04-11T07:06:46.629Z,1008.79
2016-04-11T07:07:46.585Z,1008.75
2016-04-11T07:08:46.541Z,1008.78
2016-04-11T07:09:49.497Z,1008.77
2016-04-11T07:10:46.437Z,1008.8
2016-04-11T07:11:49.392Z,1008.77
2016-04-11T07:12:46.348Z,1008.75
2016-04-11T07:13:46.711Z,1008.74
2016-04-11T07:14:46.338Z,1008.75
2016-04-11T07:15:46.309Z,1008.75
2016-04-11T07:16:46.156Z,1008.75
2016-04-11T07:17:46.159Z,1008.72
2016-04-11T07:18:46.100Z,1008.7
2016-04-11T07:19:46.227Z,1008.75
2016-04-11T07:20:46.027Z,1008.68
2016-04-11T07:21:45.919Z,1008.71
2016-04-11T07:22:45.875Z,1008.75
2016-04-11T07:23:45.831Z,1008.69
2016-04-11T07:24:45.788Z,1008.76
2016-04-11T07:25:45.745Z,1008.68
2016-04-11T07:26:45.716Z,1008.62
2016-04-11T07:27:45.657Z,1008.71
2016-04-11T07:28:45.596Z,1008.71
2016-04-11T07:29:45.568Z,1008.69
2016-04-11T07:30:48.523Z,1008.67
2016-04-11T07:31:45.464Z,1008.63
2016-04-11T07:32:45.421Z,1008.68
2016-04-11T07:33:45.376Z,1008.63
2016-04-11T07:34:45.315Z,1008.64
2016-04-11T07:35:45.272Z,1008.61
2016-04-11T07:36:45.228Z,1008.67
2016-04-11T07:37:45.183Z,1008.72
2016-04-11T07:38:45.123Z,1008.75
2016-04-11T07:39:45.095Z,1008.74
2016-04-11T07:40:45.067Z,1008.73
2016-04-11T07:41:44.991Z,1008.69
2016-04-11T07:42:45.150Z,1008.66
2016-04-11T07:43:44.903Z,1008.66
2016-04-11T07:44:44.858Z,1008.65
2016-04-11T07:45:44.814Z,1008.69
2016-04-11T07:46:44.755Z,1008.64
2016-04-11T07:47:44.710Z,1008.65
2016-04-11T07:48:44.667Z,1008.67
2016-04-11T07:49:44.622Z,1008.7
2016-04-11T07:50:44.578Z,1008.68
2016-04-11T07:51:44.518Z,1008.81
2016-04-11T07:52:44.488Z,1008.74
2016-04-11T07:53:44.430Z,1008.71
2016-04-11T07:54:44.385Z,1008.67
2016-04-11T07:55:44.326Z,1008.69
2016-04-11T07:56:44.282Z,1008.69
2016-04-11T07:57:44.237Z,1008.63
2016-04-11T07:58:44.193Z,1008.74
2016-04-11T07:59:44.602Z,1008.68
2016-04-11T08:00:44.104Z,1008.64
2016-04-11T08:01:44.060Z,1008.67
2016-04-11T08:02:44.016Z,1008.7
2016-04-11T08:03:43.957Z,1008.76
2016-04-11T08:04:43.928Z,1008.68
2016-04-11T08:05:43.868Z,1008.79
2016-04-11T08:06:43.823Z,1008.8
2016-04-11T08:07:43.779Z,1008.83
2016-04-11T08:08:43.720Z,1008.87
2016-04-11T08:09:43.711Z,1008.83
2016-04-11T08:10:43.653Z,1008.76
2016-04-11T08:11:43.592Z,1008.78
2016-04-11T08:12:43.532Z,1008.73
2016-04-11T08:13:43.503Z,1008.8
2016-04-11T08:14:43.460Z,1008.74
2016-04-11T08:15:43.416Z,1008.74
2016-04-11T08:16:43.433Z,1008.68
2016-04-11T08:17:43.347Z,1008.71
2016-04-11T08:18:43.272Z,1008.63
2016-04-11T08:19:43.274Z,1008.62
2016-04-11T08:20:43.169Z,1008.69
2016-04-11T08:21:43.155Z,1008.64
2016-04-11T08:22:43.079Z,1008.64
2016-04-11T08:23:43.051Z,1008.59
2016-04-11T08:24:42.990Z,1008.65
2016-04-11T08:25:42.932Z,1008.65
2016-04-11T08:26:42.887Z,1008.65
2016-04-11T08:27:42.843Z,1008.63
2016-04-11T08:28:42.784Z,1008.66
2016-04-11T08:29:42.739Z,1008.62
2016-04-11T08:30:42.711Z,1008.62
2016-04-11T08:31:45.667Z,1008.56
2016-04-11T08:32:42.638Z,1008.58
2016-04-11T08:33:42.656Z,1008.6
2016-04-11T08:34:42.518Z,1008.61
2016-04-11T08:35:42.662Z,1008.61
2016-04-11T08:36:42.430Z,1008.62
2016-04-11T08:37:42.370Z,1008.62
2016-04-11T08:38:42.311Z,1008.64
2016-04-11T08:39:42.281Z,1008.58
2016-04-11T08:40:42.222Z,1008.56
2016-04-11T08:41:42.209Z,1008.57
2016-04-11T08:42:42.133Z,1008.59
2016-04-11T08:43:42.089Z,1008.65
2016-04-11T08:44:42.045Z,1008.66
2016-04-11T08:45:42.001Z,1008.66
2016-04-11T08:46:41.957Z,1008.67
2016-04-11T08:47:41.913Z,1008.67
2016-04-11T08:48:44.852Z,1008.65
2016-04-11T08:49:41.808Z,1008.68
2016-04-11T08:50:41.765Z,1008.7
2016-04-11T08:51:41.721Z,1008.71
2016-04-11T08:52:41.770Z,1008.69
2016-04-11T08:53:41.615Z,1008.68
2016-04-11T08:54:41.572Z,1008.6
2016-04-11T08:55:41.543Z,1008.71
2016-04-11T08:56:41.484Z,1008.67
2016-04-11T08:57:41.595Z,1008.61
2016-04-11T08:58:41.426Z,1008.6
2016-04-11T08:59:41.335Z,1008.6
2016-04-11T09:00:41.306Z,1008.58
2016-04-11T09:01:41.310Z,1008.64
2016-04-11T09:02:41.203Z,1008.58
2016-04-11T09:03:41.206Z,1008.58
2016-04-11T09:04:41.130Z,1008.52
2016-04-11T09:05:41.070Z,1008.56
2016-04-11T09:06:41.011Z,1008.49
2016-04-11T09:07:40.966Z,1008.53
2016-04-11T09:08:40.922Z,1008.51
2016-04-11T09:09:40.878Z,1008.45
2016-04-11T09:10:41.037Z,1008.46
2016-04-11T09:11:40.774Z,1008.48
2016-04-11T09:12:40.730Z,1008.48
2016-04-11T09:13:40.702Z,1008.43
2016-04-11T09:14:40.672Z,1008.45
2016-04-11T09:15:40.597Z,1008.39
2016-04-11T09:16:40.553Z,1008.38
2016-04-11T09:17:40.540Z,1008.42
2016-04-11T09:18:40.449Z,1008.49
2016-04-11T09:19:40.421Z,1008.38
2016-04-11T09:20:40.360Z,1008.34
2016-04-11T09:21:40.379Z,1008.39
2016-04-11T09:22:43.491Z,1008.39
2016-04-11T09:23:40.260Z,1008.41
2016-04-11T09:24:40.168Z,1008.41
2016-04-11T09:25:40.140Z,1008.4
2016-04-11T09:26:40.080Z,1008.42
2016-04-11T09:27:40.035Z,1008.41
2016-04-11T09:28:40.038Z,1008.42
2016-04-11T09:29:39.932Z,1008.4
2016-04-11T09:30:39.888Z,1008.38
2016-04-11T09:31:39.843Z,1008.42
2016-04-11T09:32:39.815Z,1008.38
2016-04-11T09:33:39.739Z,1008.38
2016-04-11T09:34:39.742Z,1008.42
2016-04-11T09:35:39.667Z,1008.42
2016-04-11T09:36:39.764Z,1008.38
2016-04-11T09:37:39.562Z,1008.4
2016-04-11T09:38:39.519Z,1008.34
2016-04-11T09:39:42.475Z,1008.37
2016-04-11T09:40:42.430Z,1008.36
2016-04-11T09:41:39.370Z,1008.41
2016-04-11T09:42:39.325Z,1008.37
2016-04-11T09:43:39.283Z,1008.42
2016-04-11T09:44:39.222Z,1008.35
2016-04-11T09:45:39.177Z,1008.35
2016-04-11T09:46:39.133Z,1008.32
2016-04-11T09:47:39.105Z,1008.34
2016-04-11T09:48:39.046Z,1008.34
2016-04-11T09:49:38.986Z,1008.4
2016-04-11T09:50:39.004Z,1008.38
2016-04-11T09:51:38.913Z,1008.39
2016-04-11T09:52:38.869Z,1008.35
2016-04-11T09:53:38.809Z,1008.38
2016-04-11T09:54:38.765Z,1008.41
2016-04-11T09:55:38.735Z,1008.41
2016-04-11T09:56:38.693Z,1008.34
2016-04-11T09:57:38.741Z,1008.32
2016-04-11T09:58:38.728Z,1008.31
2016-04-11T09:59:38.528Z,1008.31
2016-04-11T10:00:38.484Z,1008.42
2016-04-11T10:01:38.440Z,1008.36
2016-04-11T10:02:38.379Z,1008.36
2016-04-11T10:03:38.336Z,1008.36
2016-04-11T10:04:38.306Z,1008.29
2016-04-11T10:05:38.248Z,1008.28
2016-04-11T10:06:38.234Z,1008.29
2016-04-11T10:07:38.159Z,1008.3
2016-04-11T10:08:38.114Z,1008.37
2016-04-11T10:09:38.071Z,1008.31
2016-04-11T10:10:38.026Z,1008.34
2016-04-11T10:11:37.983Z,1008.3
2016-04-11T10:12:37.938Z,1008.28
2016-04-11T10:13:37.894Z,1008.26
2016-04-11T10:14:37.833Z,1008.23
2016-04-11T10:15:37.789Z,1008.26
2016-04-11T10:16:37.917Z,1008.22
2016-04-11T10:17:37.701Z,1008.21
2016-04-11T10:18:37.641Z,1008.23
2016-04-11T10:19:37.597Z,1008.2
2016-04-11T10:20:37.553Z,1008.29
2016-04-11T10:21:37.790Z,1008.27
2016-04-11T10:22:37.465Z,1008.23
2016-04-11T10:23:37.640Z,1008.24
2016-04-11T10:24:37.407Z,1008.2
2016-04-11T10:25:37.316Z,1008.19
2016-04-11T10:26:37.273Z,1008.19
2016-04-11T10:27:37.243Z,1008.15
2016-04-11T10:28:40.216Z,1008.12
2016-04-11T10:29:37.124Z,1008.07
2016-04-11T10:30:37.190Z,1008.14
2016-04-11T10:31:37.051Z,1008.16
2016-04-11T10:32:36.992Z,1008.14
2016-04-11T10:33:37.042Z,1008.12
2016-04-11T10:34:36.888Z,1008.08
2016-04-11T10:35:36.906Z,1008.09
2016-04-11T10:36:36.800Z,1008.08
2016-04-11T10:37:36.770Z,1008.06
2016-04-11T10:38:36.711Z,1008.07
2016-04-11T10:39:36.667Z,1008.03
2016-04-11T10:40:36.607Z,1007.98
2016-04-11T10:41:36.563Z,1008.04
2016-04-11T10:42:39.534Z,1008.02
2016-04-11T10:43:36.569Z,1007.98
2016-04-11T10:44:36.742Z,1007.99
2016-04-11T10:45:36.917Z,1008.04
2016-04-11T10:46:36.327Z,1008
2016-04-11T10:47:36.297Z,1007.96
2016-04-11T10:48:36.316Z,1008
2016-04-11T10:49:36.210Z,1007.96
2016-04-11T10:50:36.165Z,1007.93
2016-04-11T10:51:36.105Z,1007.97
2016-04-11T10:52:36.077Z,1007.92
2016-04-11T10:53:36.002Z,1007.89
2016-04-11T10:54:35.957Z,1007.85
2016-04-11T10:55:35.944Z,1007.81
2016-04-11T10:56:35.868Z,1007.86
2016-04-11T10:57:35.810Z,1007.78
2016-04-11T10:58:35.827Z,1007.84
2016-04-11T10:59:35.752Z,1007.87
2016-04-11T11:00:35.676Z,1007.86
2016-04-11T11:01:35.632Z,1007.79
2016-04-11T11:02:35.587Z,1007.83
2016-04-11T11:03:35.544Z,1007.77
2016-04-11T11:04:46.782Z,1007.85
2016-04-11T11:05:35.456Z,1007.87
2016-04-11T11:06:35.411Z,1007.88
2016-04-11T11:07:35.351Z,1007.84
2016-04-11T11:08:35.306Z,1007.8
2016-04-11T11:09:35.264Z,1007.78
2016-04-11T11:10:35.204Z,1007.77
2016-04-11T11:11:35.159Z,1007.77
2016-04-11T11:12:35.146Z,1007.75
2016-04-11T11:13:35.071Z,1007.78
2016-04-11T11:14:35.230Z,1007.71
2016-04-11T11:15:34.967Z,1007.73
2016-04-11T11:16:34.938Z,1007.68
2016-04-11T11:17:34.879Z,1007.74
2016-04-11T11:18:34.850Z,1007.71
2016-04-11T11:19:34.790Z,1007.74
2016-04-11T11:20:34.746Z,1007.67
2016-04-11T11:21:34.702Z,1007.7
2016-04-11T11:22:34.657Z,1007.69
2016-04-11T11:23:34.644Z,1007.66
2016-04-11T11:24:34.647Z,1007.61
2016-04-11T11:25:34.525Z,1007.57
2016-04-11T11:26:34.465Z,1007.62
2016-04-11T11:27:34.421Z,1007.57
2016-04-11T11:28:34.361Z,1007.55
2016-04-11T11:29:34.318Z,1007.56
2016-04-11T11:30:34.273Z,1007.54
2016-04-11T11:31:34.229Z,1007.56
2016-04-11T11:32:37.200Z,1007.62
2016-04-11T11:33:34.140Z,1007.57
2016-04-11T11:34:34.111Z,1007.57
2016-04-11T11:35:34.051Z,1007.53
2016-04-11T11:36:34.039Z,1007.58
2016-04-11T11:37:33.948Z,1007.6
2016-04-11T11:38:33.904Z,1007.64
2016-04-11T11:39:33.844Z,1007.61
2016-04-11T11:40:33.800Z,1007.58
2016-04-11T11:41:33.771Z,1007.58
2016-04-11T11:42:33.711Z,1007.6
2016-04-11T11:43:33.667Z,1007.53
2016-04-11T11:44:33.623Z,1007.65
2016-04-11T11:45:33.579Z,1007.61
2016-04-11T11:46:33.519Z,1007.56
2016-04-11T11:47:33.475Z,1007.53
2016-04-11T11:48:33.431Z,1007.56
2016-04-11T11:49:33.417Z,1007.6
2016-04-11T11:50:33.358Z,1007.59
2016-04-11T11:51:33.297Z,1007.58
2016-04-11T11:52:33.239Z,1007.6
2016-04-11T11:53:33.194Z,1007.6
2016-04-11T11:54:33.197Z,1007.55
2016-04-11T11:55:33.121Z,1007.59
2016-04-11T11:56:33.061Z,1007.5
2016-04-11T11:57:33.002Z,1007.45
2016-04-11T11:58:32.957Z,1007.46
2016-04-11T11:59:32.976Z,1007.48
2016-04-11T12:00:32.884Z,1007.42
2016-04-11T12:01:33.029Z,1007.42
2016-04-11T12:02:32.781Z,1007.39
2016-04-11T12:03:32.736Z,1007.43
2016-04-11T12:04:32.693Z,1007.34
2016-04-11T12:05:32.649Z,1007.38
2016-04-11T12:06:32.588Z,1007.35
2016-04-11T12:07:32.575Z,1007.38